createdAt,value
2023-02-22T00:00:51.912Z,141.18
2023-02-22T00:01:48.254Z,141.54
2023-02-22T00:02:43.425Z,141.06
2023-02-22T00:03:39.248Z,141.42
2023-02-22T00:04:34.465Z,141.06
2023-02-22T00:05:29.662Z,140.35
2023-02-22T00:06:25.460Z,140.94
2023-02-22T00:07:20.725Z,143.12
2023-02-22T00:08:16.409Z,144.36
2023-02-22T00:09:11.522Z,144.48
2023-02-22T00:10:06.868Z,144.36
2023-02-22T00:11:02.536Z,144.23
2023-02-22T00:11:57.675Z,143.49
2023-02-22T00:12:52.844Z,144.86
2023-02-22T00:13:49.224Z,144.36
2023-02-22T00:14:44.333Z,146.00
2023-02-22T00:15:40.146Z,145.11
2023-02-22T00:16:35.289Z,145.62
2023-02-22T00:17:30.463Z,144.86
2023-02-22T00:18:26.295Z,145.74
2023-02-22T00:19:21.676Z,146.25
2023-02-22T00:20:18.747Z,146.12
2023-02-22T00:21:12.605Z,146.38
2023-02-22T00:22:07.726Z,147.68
2023-02-22T00:23:02.899Z,145.74
2023-02-22T00:23:58.030Z,145.74
2023-02-22T00:24:53.025Z,146.25
2023-02-22T00:25:48.006Z,145.74
2023-02-22T00:26:43.120Z,145.24
2023-02-22T00:27:38.114Z,146.64
2023-02-22T00:28:33.326Z,145.87
2023-02-22T00:29:28.185Z,145.49
2023-02-22T00:30:23.342Z,146.77
2023-02-22T00:31:18.745Z,146.77
2023-02-22T00:32:13.540Z,148.46
2023-02-22T00:33:08.533Z,148.20
2023-02-22T00:34:03.630Z,148.60
2023-02-22T00:34:58.660Z,149.40
2023-02-22T00:35:55.254Z,150.20
2023-02-22T00:36:50.361Z,151.15
2023-02-22T00:37:45.406Z,151.98
2023-02-22T00:38:41.529Z,151.15
2023-02-22T00:39:35.698Z,151.15
2023-02-22T00:40:30.809Z,150.07
2023-02-22T00:41:25.933Z,149.66
2023-02-22T00:42:20.916Z,151.15
2023-02-22T00:43:16.166Z,151.57
2023-02-22T00:44:11.124Z,150.88
2023-02-22T00:45:06.265Z,150.74
2023-02-22T00:46:01.350Z,150.34
2023-02-22T00:46:56.369Z,149.40
2023-02-22T00:47:55.616Z,150.47
2023-02-22T00:48:50.725Z,151.71
2023-02-22T00:49:45.858Z,150.61
2023-02-22T00:50:40.839Z,150.88
2023-02-22T00:51:36.172Z,151.57
2023-02-22T00:52:31.392Z,151.71
2023-02-22T00:53:26.471Z,153.66
2023-02-22T00:54:21.507Z,151.98
2023-02-22T00:55:16.469Z,151.98
2023-02-22T00:56:11.630Z,152.26
2023-02-22T00:57:10.349Z,153.66
2023-02-22T00:58:05.450Z,154.23
2023-02-22T00:59:00.590Z,156.10
2023-02-22T00:59:55.909Z,155.67
2023-02-22T01:00:51.193Z,155.38
2023-02-22T01:01:46.205Z,157.43
2023-02-22T01:02:41.408Z,158.78
2023-02-22T01:03:36.500Z,157.88
2023-02-22T01:04:31.371Z,159.84
2023-02-22T01:05:26.418Z,158.78
2023-02-22T01:06:21.390Z,162.17
2023-02-22T01:07:16.456Z,162.01
2023-02-22T01:08:11.614Z,159.69
2023-02-22T01:09:06.613Z,162.01
2023-02-22T01:10:01.623Z,158.93
2023-02-22T01:10:57.101Z,158.93
2023-02-22T01:11:51.849Z,158.32
2023-02-22T01:12:47.034Z,159.84
2023-02-22T01:13:42.063Z,159.38
2023-02-22T01:14:37.092Z,156.84
2023-02-22T01:15:32.062Z,157.13
2023-02-22T01:16:27.363Z,156.84
2023-02-22T01:17:22.553Z,158.03
2023-02-22T01:18:17.503Z,156.10
2023-02-22T01:19:12.922Z,156.40
2023-02-22T01:20:07.564Z,156.10
2023-02-22T01:21:02.629Z,156.25
2023-02-22T01:21:57.750Z,155.09
2023-02-22T01:22:52.986Z,155.38
2023-02-22T01:23:47.947Z,156.54
2023-02-22T01:24:42.897Z,156.69
2023-02-22T01:25:38.038Z,157.28
2023-02-22T01:26:34.397Z,158.32
2023-02-22T01:27:29.555Z,159.23
2023-02-22T01:28:25.367Z,158.32
2023-02-22T01:29:20.717Z,160.92
2023-02-22T01:30:15.727Z,161.86
2023-02-22T01:31:11.713Z,160.30
2023-02-22T01:32:06.799Z,161.70
2023-02-22T01:33:02.605Z,162.96
2023-02-22T01:33:57.664Z,161.54
2023-02-22T01:34:53.046Z,164.73
2023-02-22T01:35:48.659Z,165.06
2023-02-22T01:36:43.828Z,165.22
2023-02-22T01:37:38.909Z,166.54
2023-02-22T01:38:35.262Z,166.54
2023-02-22T01:39:30.391Z,165.55
2023-02-22T01:40:26.240Z,164.90
2023-02-22T01:41:21.327Z,168.73
2023-02-22T01:42:16.449Z,168.56
2023-02-22T01:43:12.254Z,166.38
2023-02-22T01:44:07.525Z,167.71
2023-02-22T01:45:03.431Z,169.24
2023-02-22T01:45:58.570Z,168.56
2023-02-22T01:46:53.671Z,168.90
2023-02-22T01:47:49.517Z,168.73
2023-02-22T01:48:44.608Z,168.56
2023-02-22T01:49:40.039Z,168.56
2023-02-22T01:50:36.031Z,169.93
2023-02-22T01:51:31.289Z,168.22
2023-02-22T01:52:27.371Z,168.22
2023-02-22T01:53:22.195Z,167.04
2023-02-22T01:54:17.430Z,168.22
2023-02-22T01:55:13.128Z,167.38
2023-02-22T01:56:08.267Z,170.28
2023-02-22T01:57:04.222Z,168.73
2023-02-22T01:57:59.165Z,168.22
2023-02-22T01:58:54.689Z,170.98
2023-02-22T01:59:50.365Z,168.73
2023-02-22T02:00:45.649Z,172.75
2023-02-22T02:01:40.756Z,174.55
2023-02-22T02:02:37.129Z,172.39
2023-02-22T02:03:32.269Z,171.68
2023-02-22T02:04:28.103Z,172.39
2023-02-22T02:05:23.321Z,172.39
2023-02-22T02:06:18.518Z,173.65
2023-02-22T02:07:14.221Z,174.37
2023-02-22T02:08:09.390Z,177.90
2023-02-22T02:09:05.301Z,174.01
2023-02-22T02:10:00.413Z,173.83
2023-02-22T02:10:55.671Z,176.03
2023-02-22T02:11:51.349Z,173.47
2023-02-22T02:12:46.475Z,173.29
2023-02-22T02:13:41.690Z,170.98
2023-02-22T02:14:37.912Z,172.39
2023-02-22T02:15:33.170Z,170.63
2023-02-22T02:16:29.015Z,170.63
2023-02-22T02:17:24.158Z,171.68
2023-02-22T02:18:19.306Z,172.39
2023-02-22T02:19:15.141Z,170.63
2023-02-22T02:20:10.240Z,173.29
2023-02-22T02:21:06.193Z,171.33
2023-02-22T02:23:28.041Z,153.52
2023-02-22T02:24:23.013Z,157.58
2023-02-22T02:25:18.123Z,163.12
2023-02-22T02:26:13.240Z,166.21
2023-02-22T02:27:08.298Z,169.93
2023-02-22T02:28:03.504Z,172.39
2023-02-22T02:28:58.722Z,175.66
2023-02-22T02:29:53.805Z,176.03
2023-02-22T02:30:48.892Z,176.03
2023-02-22T02:31:44.074Z,178.86
2023-02-22T02:32:39.172Z,178.48
2023-02-22T02:33:34.629Z,178.10
2023-02-22T02:34:29.586Z,178.29
2023-02-22T02:35:24.796Z,178.29
2023-02-22T02:36:19.877Z,179.43
2023-02-22T02:37:15.098Z,179.43
2023-02-22T02:38:10.205Z,179.24
2023-02-22T02:39:05.470Z,179.43
2023-02-22T02:40:00.563Z,180.21
2023-02-22T02:40:55.648Z,179.82
2023-02-22T02:41:50.722Z,180.99
2023-02-22T02:42:45.974Z,180.40
2023-02-22T02:43:41.162Z,182.98
2023-02-22T02:44:36.295Z,183.38
2023-02-22T02:45:31.355Z,182.98
2023-02-22T02:46:26.459Z,183.18
2023-02-22T02:47:21.683Z,184.19
2023-02-22T02:48:16.798Z,184.60
2023-02-22T02:49:11.897Z,185.62
2023-02-22T02:50:07.113Z,185.62
2023-02-22T02:51:02.174Z,184.60
2023-02-22T02:51:57.291Z,185.42
2023-02-22T02:52:52.387Z,185.83
2023-02-22T02:53:47.860Z,185.01
2023-02-22T02:54:42.809Z,183.18
2023-02-22T02:55:38.019Z,182.78
2023-02-22T02:56:33.233Z,181.58
2023-02-22T02:57:28.301Z,181.19
2023-02-22T02:58:23.377Z,179.63
2023-02-22T02:59:18.490Z,178.67
2023-02-22T03:00:13.546Z,177.72
2023-02-22T03:01:08.776Z,178.10
2023-02-22T03:02:04.821Z,174.19
2023-02-22T03:02:59.114Z,173.29
2023-02-22T03:03:54.306Z,175.29
2023-02-22T03:04:49.410Z,175.84
2023-02-22T03:05:44.510Z,173.47
2023-02-22T03:06:39.616Z,174.19
2023-02-22T03:07:34.880Z,175.47
2023-02-22T03:08:29.799Z,175.66
2023-02-22T03:09:24.883Z,177.72
2023-02-22T03:10:20.116Z,177.53
2023-02-22T03:11:15.744Z,179.43
2023-02-22T03:12:10.381Z,182.98
2023-02-22T03:13:08.617Z,185.01
2023-02-22T03:14:01.256Z,185.42
2023-02-22T03:14:55.836Z,184.79
2023-02-22T03:15:50.928Z,185.52
2023-02-22T03:16:46.065Z,185.10
2023-02-22T03:17:41.288Z,185.20
2023-02-22T03:18:36.348Z,186.79
2023-02-22T03:19:31.618Z,185.94
2023-02-22T03:20:26.549Z,186.26
2023-02-22T03:21:21.786Z,187.32
2023-02-22T03:22:16.872Z,187.75
2023-02-22T03:23:12.087Z,187.43
2023-02-22T03:24:07.278Z,187.64
2023-02-22T03:25:02.614Z,188.83
2023-02-22T03:25:57.577Z,188.39
2023-02-22T03:26:52.791Z,187.85
2023-02-22T03:27:47.866Z,187.10
2023-02-22T03:28:43.102Z,186.26
2023-02-22T03:29:38.169Z,185.62
2023-02-22T03:33:29.350Z,146.25
2023-02-22T03:34:24.453Z,152.68
2023-02-22T03:35:19.652Z,159.08
2023-02-22T03:36:14.635Z,161.86
2023-02-22T03:37:09.812Z,162.65
2023-02-22T03:38:05.055Z,163.76
2023-02-22T03:39:00.143Z,158.63
2023-02-22T03:39:55.479Z,150.61
2023-02-22T03:40:50.554Z,149.13
2023-02-22T03:41:45.650Z,154.23
2023-02-22T03:42:40.844Z,155.23
2023-02-22T03:43:36.206Z,156.40
2023-02-22T03:44:31.292Z,158.78
2023-02-22T03:45:26.412Z,158.18
2023-02-22T03:46:21.563Z,160.30
2023-02-22T03:47:16.681Z,161.86
2023-02-22T03:48:11.733Z,164.73
2023-02-22T03:49:07.002Z,166.71
2023-02-22T03:50:02.168Z,167.38
2023-02-22T03:50:57.254Z,169.07
2023-02-22T03:51:52.476Z,172.39
2023-02-22T03:52:47.568Z,175.66
2023-02-22T03:53:42.779Z,178.67
2023-02-22T03:54:37.885Z,182.58
2023-02-22T03:55:33.110Z,182.98
2023-02-22T03:56:28.073Z,183.18
2023-02-22T03:57:23.376Z,182.58
2023-02-22T03:58:18.456Z,182.98
2023-02-22T03:59:13.543Z,184.60
2023-02-22T04:00:08.781Z,183.99
2023-02-22T04:01:03.932Z,183.38
2023-02-22T04:01:59.063Z,182.18
2023-02-22T04:02:54.270Z,183.78
2023-02-22T04:03:49.498Z,183.99
2023-02-22T04:04:44.634Z,183.78
2023-02-22T04:05:39.684Z,183.18
2023-02-22T04:06:34.773Z,184.39
2023-02-22T04:07:30.016Z,182.78
2023-02-22T04:08:25.078Z,181.78
2023-02-22T04:09:20.175Z,181.39
2023-02-22T04:10:15.965Z,181.39
2023-02-22T04:11:10.380Z,181.78
2023-02-22T04:12:05.461Z,180.40
2023-02-22T04:13:00.829Z,180.99
2023-02-22T04:13:55.893Z,181.39
2023-02-22T04:14:50.997Z,182.38
2023-02-22T04:15:46.091Z,183.38
2023-02-22T04:16:41.202Z,184.39
2023-02-22T04:17:36.287Z,186.66
2023-02-22T04:18:31.579Z,185.10
2023-02-22T04:19:26.691Z,184.99
2023-02-22T04:20:21.903Z,186.87
2023-02-22T04:21:17.301Z,185.52
2023-02-22T04:22:12.303Z,187.00
2023-02-22T04:23:07.479Z,186.79
2023-02-22T04:24:02.687Z,186.15
2023-02-22T04:24:57.775Z,186.47
2023-02-22T04:25:52.867Z,186.26
2023-02-22T04:26:47.973Z,186.79
2023-02-22T04:27:43.198Z,188.83
2023-02-22T04:28:38.693Z,187.43
2023-02-22T04:29:33.478Z,188.94
2023-02-22T04:30:28.717Z,189.59
2023-02-22T04:31:23.794Z,190.69
2023-02-22T04:32:18.838Z,191.70
2023-02-22T04:33:13.948Z,193.05
2023-02-22T04:34:09.272Z,192.93
2023-02-22T04:35:04.252Z,192.15
2023-02-22T04:35:59.500Z,193.05
2023-02-22T04:36:54.594Z,194.65
2023-02-22T04:37:49.849Z,195.35
2023-02-22T04:38:44.886Z,196.87
2023-02-22T04:39:40.239Z,195.58
2023-02-22T04:40:35.166Z,195.23
2023-02-22T04:41:30.417Z,193.73
2023-02-22T04:42:25.526Z,193.16
2023-02-22T04:43:20.893Z,192.60
2023-02-22T04:44:16.059Z,192.71
2023-02-22T04:45:11.219Z,194.54
2023-02-22T04:46:06.306Z,194.54
2023-02-22T04:47:01.433Z,193.62
2023-02-22T04:47:56.483Z,193.16
2023-02-22T04:48:51.726Z,192.37
2023-02-22T04:49:46.842Z,191.58
2023-02-22T04:50:42.102Z,191.92
2023-02-22T04:51:37.165Z,190.69
2023-02-22T04:52:32.329Z,190.25
2023-02-22T04:53:27.391Z,189.04
2023-02-22T04:54:22.765Z,186.36
2023-02-22T04:56:45.617Z,164.90
2023-02-22T04:57:39.637Z,170.63
2023-02-22T04:58:34.724Z,174.19
2023-02-22T04:59:29.819Z,177.72
2023-02-22T05:00:25.063Z,176.77
2023-02-22T05:01:20.196Z,175.29
2023-02-22T05:02:15.571Z,174.55
2023-02-22T05:03:10.502Z,174.74
2023-02-22T05:04:05.792Z,174.74
2023-02-22T05:05:00.953Z,176.40
2023-02-22T05:05:56.129Z,177.34
2023-02-22T05:06:53.293Z,179.63
2023-02-22T05:07:46.424Z,175.47
2023-02-22T05:08:41.512Z,173.65
2023-02-22T05:09:36.627Z,172.75
2023-02-22T05:10:31.697Z,173.11
2023-02-22T05:11:26.946Z,175.10
2023-02-22T05:12:22.081Z,177.53
2023-02-22T05:13:17.474Z,179.63
2023-02-22T05:14:12.549Z,178.10
2023-02-22T05:15:07.698Z,179.05
2023-02-22T05:16:02.802Z,181.98
2023-02-22T05:16:58.122Z,183.99
2023-02-22T05:17:54.012Z,184.39
2023-02-22T05:18:48.286Z,183.78
2023-02-22T05:19:43.462Z,179.24
2023-02-22T05:20:38.570Z,179.63
2023-02-22T05:21:33.674Z,179.82
2023-02-22T05:22:28.830Z,181.78
2023-02-22T05:23:23.989Z,178.29
2023-02-22T05:24:19.104Z,181.39
2023-02-22T05:26:40.790Z,166.04
2023-02-22T05:27:35.754Z,172.57
2023-02-22T05:28:30.967Z,178.48
2023-02-22T05:29:26.176Z,184.80
2023-02-22T05:30:21.293Z,186.26
2023-02-22T05:31:16.750Z,187.85
2023-02-22T05:32:11.723Z,187.96
2023-02-22T05:33:06.800Z,188.83
2023-02-22T05:34:01.873Z,188.94
2023-02-22T05:34:56.989Z,190.69
2023-02-22T05:35:52.039Z,191.81
2023-02-22T05:36:47.394Z,192.15
2023-02-22T05:37:42.529Z,190.91
2023-02-22T05:38:37.659Z,192.48
2023-02-22T05:39:32.891Z,190.80
2023-02-22T05:40:27.994Z,190.91
2023-02-22T05:41:23.086Z,181.19
2023-02-22T05:42:18.309Z,177.34
2023-02-22T05:43:13.380Z,171.33
2023-02-22T05:44:08.606Z,170.11
2023-02-22T05:45:03.712Z,169.93
2023-02-22T05:45:58.949Z,171.33
2023-02-22T05:46:54.166Z,172.39
2023-02-22T05:47:49.340Z,162.80
2023-02-22T05:50:28.536Z,120.75
2023-02-22T05:51:25.275Z,119.79
2023-02-22T05:52:18.784Z,127.09
2023-02-22T05:53:13.853Z,133.71
2023-02-22T05:54:09.187Z,138.37
2023-02-22T05:55:04.241Z,139.88
2023-02-22T05:55:59.522Z,142.63
2023-02-22T05:56:54.641Z,147.29
2023-02-22T05:57:50.381Z,137.23
2023-02-22T05:58:45.152Z,134.79
2023-02-22T05:59:40.337Z,137.69
2023-02-22T06:00:35.660Z,141.90
2023-02-22T06:01:30.766Z,145.74
2023-02-22T06:02:25.878Z,150.88
2023-02-22T06:03:21.156Z,156.54
2023-02-22T06:04:16.295Z,159.23
2023-02-22T06:05:11.792Z,154.09
2023-02-22T06:06:06.813Z,158.32
2023-02-22T06:07:02.141Z,163.60
2023-02-22T06:07:57.289Z,160.15
2023-02-22T06:08:52.461Z,160.92
2023-02-22T06:09:47.709Z,158.18
2023-02-22T06:10:42.925Z,156.69
2023-02-22T06:11:37.980Z,158.32
2023-02-22T06:12:33.227Z,160.77
2023-02-22T06:13:28.532Z,162.96
2023-02-22T06:14:23.766Z,166.21
2023-02-22T06:15:18.978Z,167.71
2023-02-22T06:16:14.270Z,170.80
2023-02-22T06:17:09.497Z,172.57
2023-02-22T06:18:04.811Z,173.29
2023-02-22T06:19:00.356Z,174.01
2023-02-22T06:19:55.513Z,177.53
2023-02-22T06:20:50.944Z,178.29
2023-02-22T06:21:46.140Z,178.29
2023-02-22T06:22:41.449Z,180.60
2023-02-22T06:23:36.785Z,179.43
2023-02-22T06:24:32.117Z,179.63
2023-02-22T06:25:27.362Z,177.90
2023-02-22T06:26:22.877Z,176.96
2023-02-22T06:27:18.104Z,176.40
2023-02-22T06:28:13.433Z,176.40
2023-02-22T06:29:08.805Z,174.19
2023-02-22T06:30:04.288Z,164.73
2023-02-22T06:30:59.607Z,151.71
2023-02-22T06:31:54.898Z,146.00
2023-02-22T06:32:50.150Z,137.01
2023-02-22T06:33:45.504Z,123.06
2023-02-22T06:34:40.808Z,118.60
2023-02-22T06:35:36.218Z,120.23
2023-02-22T06:36:31.438Z,122.70
2023-02-22T06:37:26.767Z,128.17
2023-02-22T06:38:22.106Z,135.56
2023-02-22T06:39:17.438Z,137.35
2023-02-22T06:40:12.806Z,137.01
2023-02-22T06:41:08.298Z,139.53
2023-02-22T06:42:03.664Z,143.98
2023-02-22T06:42:58.913Z,151.43
2023-02-22T06:43:54.327Z,149.00
2023-02-22T06:44:51.673Z,148.60
2023-02-22T06:45:45.212Z,152.12
2023-02-22T06:46:40.708Z,152.40
2023-02-22T06:47:35.842Z,154.94
2023-02-22T06:48:31.181Z,152.54
2023-02-22T06:49:26.593Z,152.96
2023-02-22T06:50:21.948Z,155.96
2023-02-22T06:51:17.712Z,158.03
2023-02-22T06:52:12.808Z,159.23
2023-02-22T06:53:08.274Z,151.98
2023-02-22T06:54:03.761Z,137.69
2023-02-22T06:54:59.046Z,138.83
2023-02-22T06:55:54.560Z,139.29
2023-02-22T06:56:49.970Z,142.63
2023-02-22T06:57:45.277Z,144.73
2023-02-22T06:58:40.769Z,145.36
2023-02-22T06:59:36.082Z,147.29
2023-02-22T07:00:31.684Z,150.74
2023-02-22T07:01:27.085Z,152.40
2023-02-22T07:02:22.560Z,152.40
2023-02-22T07:03:17.998Z,151.29
2023-02-22T07:04:13.586Z,154.51
2023-02-22T07:05:09.855Z,155.38
2023-02-22T07:06:04.505Z,152.40
2023-02-22T07:06:59.874Z,144.48
2023-02-22T07:07:56.115Z,140.35
2023-02-22T07:08:50.776Z,138.14
2023-02-22T07:09:46.024Z,142.14
2023-02-22T07:10:41.416Z,143.49
2023-02-22T07:11:36.823Z,146.12
2023-02-22T07:12:32.334Z,143.36
2023-02-22T07:13:27.635Z,140.23
2023-02-22T07:14:23.023Z,139.53
2023-02-22T07:15:18.432Z,140.59
2023-02-22T07:16:14.035Z,141.66
2023-02-22T07:17:09.381Z,141.18
2023-02-22T07:18:05.091Z,135.89
2023-02-22T07:19:00.819Z,135.45
2023-02-22T07:19:55.649Z,137.46
2023-02-22T07:20:50.910Z,138.49
2023-02-22T07:21:46.380Z,140.47
2023-02-22T07:22:41.758Z,141.42
2023-02-22T07:23:37.380Z,141.90
2023-02-22T07:24:32.532Z,142.26
2023-02-22T07:25:28.147Z,141.30
2023-02-22T07:26:23.447Z,141.90
2023-02-22T07:27:18.860Z,137.57
2023-02-22T07:28:14.352Z,135.56
2023-02-22T07:29:09.731Z,132.23
2023-02-22T07:30:05.240Z,129.26
2023-02-22T07:31:00.502Z,126.71
2023-02-22T07:31:56.159Z,124.53
2023-02-22T07:32:51.503Z,124.35
2023-02-22T07:33:46.792Z,125.09
2023-02-22T07:34:42.118Z,124.44
2023-02-22T07:35:37.699Z,123.89
2023-02-22T07:36:33.116Z,122.07
2023-02-22T07:37:28.577Z,119.28
2023-02-22T07:38:24.133Z,117.77
2023-02-22T07:39:20.043Z,117.19
2023-02-22T07:40:14.739Z,117.43
2023-02-22T07:41:10.144Z,118.35
2023-02-22T07:42:05.581Z,118.77
2023-02-22T07:43:01.293Z,118.60
2023-02-22T07:43:56.731Z,118.69
2023-02-22T07:44:51.896Z,118.77
2023-02-22T07:45:47.497Z,119.88
2023-02-22T07:46:43.925Z,118.35
2023-02-22T07:47:39.510Z,118.60
2023-02-22T07:48:34.896Z,118.27
2023-02-22T07:49:30.388Z,117.85
2023-02-22T07:50:25.766Z,121.45
2023-02-22T07:51:23.067Z,124.35
2023-02-22T07:52:16.606Z,125.66
2023-02-22T07:53:11.935Z,126.23
2023-02-22T07:54:07.482Z,127.97
2023-02-22T07:55:02.740Z,129.26
2023-02-22T07:55:58.151Z,130.17
2023-02-22T07:56:53.530Z,129.36
2023-02-22T07:57:49.011Z,130.07
2023-02-22T07:58:44.381Z,130.17
2023-02-22T07:59:39.385Z,129.26
2023-02-22T08:00:34.608Z,129.66
2023-02-22T08:01:30.401Z,129.56
2023-02-22T08:02:26.515Z,128.46
2023-02-22T08:03:21.660Z,127.00
2023-02-22T08:04:16.654Z,125.85
2023-02-22T08:05:11.728Z,124.81
2023-02-22T08:06:06.714Z,123.98
2023-02-22T08:07:02.033Z,123.15
2023-02-22T08:07:57.231Z,120.49
2023-02-22T08:08:51.793Z,120.75
2023-02-22T08:09:46.886Z,121.01
2023-02-22T08:10:41.878Z,122.07
2023-02-22T08:11:36.987Z,121.45
2023-02-22T08:12:32.024Z,121.10
2023-02-22T08:13:27.093Z,120.84
2023-02-22T08:14:22.582Z,120.23
2023-02-22T08:15:17.999Z,120.05
2023-02-22T08:16:13.440Z,118.94
2023-02-22T08:17:09.113Z,118.02
2023-02-22T08:18:04.598Z,116.13
2023-02-22T08:19:00.057Z,113.83
2023-02-22T08:19:55.586Z,111.47
2023-02-22T08:20:50.989Z,109.21
2023-02-22T08:21:46.558Z,107.80
2023-02-22T08:22:41.878Z,106.29
2023-02-22T08:23:37.460Z,103.91
2023-02-22T08:24:32.809Z,102.63
2023-02-22T08:25:31.863Z,101.94
2023-02-22T08:26:27.264Z,100.17
2023-02-22T08:27:22.641Z,99.09
2023-02-22T08:28:18.073Z,100.35
2023-02-22T08:29:13.417Z,100.89
2023-02-22T08:30:08.833Z,101.82
2023-02-22T08:31:04.243Z,102.57
2023-02-22T08:31:59.784Z,103.14
2023-02-22T08:32:55.224Z,103.97
2023-02-22T08:33:51.089Z,104.36
2023-02-22T08:34:45.796Z,104.56
2023-02-22T08:35:41.232Z,104.89
2023-02-22T08:36:36.670Z,104.69
2023-02-22T08:37:32.098Z,104.69
2023-02-22T08:38:27.513Z,105.28
2023-02-22T08:39:23.459Z,103.91
2023-02-22T08:40:18.240Z,103.01
2023-02-22T08:41:13.716Z,102.50
2023-02-22T08:42:09.111Z,102.50
2023-02-22T08:43:04.694Z,101.07
2023-02-22T08:44:00.052Z,98.10
2023-02-22T08:44:55.467Z,97.76
2023-02-22T08:45:50.481Z,97.02
2023-02-22T08:46:46.171Z,96.74
2023-02-22T08:47:40.613Z,96.63
2023-02-22T08:48:35.751Z,97.30
2023-02-22T08:49:31.566Z,98.74
2023-02-22T08:50:25.885Z,100.29
2023-02-22T08:51:21.031Z,99.81
2023-02-22T08:52:16.748Z,100.29
2023-02-22T08:53:12.089Z,102.44
2023-02-22T08:54:07.519Z,104.43
2023-02-22T08:55:02.943Z,106.36
2023-02-22T08:55:58.716Z,108.64
2023-02-22T08:56:54.220Z,108.08
2023-02-22T08:57:49.629Z,109.64
2023-02-22T08:58:45.061Z,110.08
2023-02-22T08:59:40.496Z,112.30
2023-02-22T09:00:35.942Z,112.91
2023-02-22T09:01:33.345Z,114.30
2023-02-22T09:02:26.956Z,114.69
2023-02-22T09:03:22.403Z,114.46
2023-02-22T09:04:17.992Z,114.69
2023-02-22T09:05:13.137Z,113.99
2023-02-22T09:06:08.221Z,111.03
2023-02-22T09:07:03.201Z,112.30
2023-02-22T09:07:58.352Z,113.52
2023-02-22T09:08:53.724Z,112.91
2023-02-22T09:09:48.399Z,113.52
2023-02-22T09:10:43.487Z,113.68
2023-02-22T09:11:40.732Z,113.91
2023-02-22T09:12:35.996Z,114.06
2023-02-22T09:13:31.094Z,114.38
2023-02-22T09:14:26.103Z,114.85
2023-02-22T09:15:21.187Z,115.48
2023-02-22T09:16:16.312Z,115.72
2023-02-22T09:17:11.320Z,114.93
2023-02-22T09:18:06.412Z,114.38
2023-02-22T09:19:01.767Z,113.75
2023-02-22T09:19:57.266Z,112.15
2023-02-22T09:20:52.973Z,112.53
2023-02-22T09:21:49.178Z,114.30
2023-02-22T09:22:43.825Z,114.85
2023-02-22T09:23:39.893Z,116.13
2023-02-22T09:24:35.406Z,118.02
2023-02-22T09:25:30.941Z,118.86
2023-02-22T09:26:26.357Z,118.77
2023-02-22T09:27:21.893Z,118.60
2023-02-22T09:28:16.972Z,118.43
2023-02-22T09:29:12.075Z,118.60
2023-02-22T09:30:07.079Z,118.35
2023-02-22T09:31:02.246Z,117.19
2023-02-22T09:31:57.530Z,117.43
2023-02-22T09:32:52.585Z,116.86
2023-02-22T09:33:47.596Z,117.77
2023-02-22T09:34:42.970Z,118.02
2023-02-22T09:35:38.157Z,119.20
2023-02-22T09:36:33.370Z,121.10
2023-02-22T09:37:28.320Z,122.88
2023-02-22T09:38:24.346Z,129.96
2023-02-22T09:39:19.975Z,133.82
2023-02-22T09:40:15.225Z,135.45
2023-02-22T09:41:10.713Z,133.93
2023-02-22T09:42:06.218Z,136.00
2023-02-22T09:43:01.875Z,135.67
2023-02-22T09:43:57.414Z,134.36
2023-02-22T09:44:53.148Z,131.92
2023-02-22T09:45:48.489Z,128.96
2023-02-22T09:46:43.861Z,127.48
2023-02-22T09:47:39.320Z,126.32
2023-02-22T09:48:34.800Z,125.56
2023-02-22T09:49:30.297Z,128.37
2023-02-22T09:50:25.802Z,128.96
2023-02-22T09:51:21.071Z,130.17
2023-02-22T09:52:15.851Z,131.50
2023-02-22T09:53:10.905Z,132.97
2023-02-22T09:54:05.972Z,130.78
2023-02-22T09:55:01.231Z,129.06
2023-02-22T09:55:56.233Z,132.44
2023-02-22T09:56:51.393Z,134.36
2023-02-22T09:57:48.359Z,132.55
2023-02-22T09:58:43.457Z,131.40
2023-02-22T09:59:38.536Z,131.50
2023-02-22T10:00:33.617Z,132.55
2023-02-22T10:01:28.656Z,135.12
2023-02-22T10:02:23.713Z,139.88
2023-02-22T10:03:21.234Z,143.36
2023-02-22T10:04:13.928Z,146.12
2023-02-22T10:05:09.008Z,143.24
2023-02-22T10:06:04.157Z,142.51
2023-02-22T10:06:59.100Z,141.18
2023-02-22T10:07:54.293Z,142.02
2023-02-22T10:08:49.195Z,143.36
2023-02-22T10:09:44.782Z,138.03
2023-02-22T10:10:40.185Z,136.00
2023-02-22T10:11:35.759Z,132.65
2023-02-22T10:12:31.160Z,131.81
2023-02-22T10:13:26.826Z,129.86
2023-02-22T10:14:22.271Z,128.76
2023-02-22T10:15:17.782Z,129.36
2023-02-22T10:16:13.417Z,128.17
2023-02-22T10:17:09.187Z,130.57
2023-02-22T10:18:04.281Z,135.12
2023-02-22T10:18:59.857Z,135.45
2023-02-22T10:19:55.323Z,135.89
2023-02-22T10:20:54.384Z,134.04
2023-02-22T10:21:49.791Z,133.71
2023-02-22T10:22:45.204Z,136.90
2023-02-22T10:23:40.920Z,137.46
2023-02-22T10:24:36.161Z,139.41
2023-02-22T10:25:31.652Z,135.45
2023-02-22T10:26:27.091Z,139.06
2023-02-22T10:27:22.690Z,139.41
2023-02-22T10:28:18.184Z,141.30
2023-02-22T10:29:16.811Z,140.47
2023-02-22T10:30:23.834Z,143.61
2023-02-22T10:31:08.366Z,147.68
2023-02-22T10:32:02.368Z,150.07
2023-02-22T10:32:57.294Z,150.20
2023-02-22T10:33:52.452Z,148.60
2023-02-22T10:34:47.410Z,148.07
2023-02-22T10:35:42.489Z,151.98
2023-02-22T10:36:37.582Z,153.94
2023-02-22T10:37:32.682Z,154.66
2023-02-22T10:38:27.686Z,156.10
2023-02-22T10:39:22.711Z,153.80
2023-02-22T10:40:17.681Z,151.71
2023-02-22T10:41:15.206Z,158.03
2023-02-22T10:42:09.820Z,165.39
2023-02-22T10:43:05.446Z,169.59
2023-02-22T10:44:00.779Z,176.77
2023-02-22T10:44:56.319Z,182.38
2023-02-22T10:45:51.798Z,184.80
2023-02-22T10:46:47.432Z,185.83
2023-02-22T10:47:42.883Z,193.50
2023-02-22T10:48:38.202Z,199.63
2023-02-22T10:49:33.618Z,200.48
2023-02-22T10:50:33.156Z,205.12
2023-02-22T10:51:28.518Z,200.24
2023-02-22T10:52:24.068Z,194.08
2023-02-22T10:53:19.720Z,192.48
2023-02-22T10:54:15.125Z,193.50
2023-02-22T10:55:15.413Z,192.15
2023-02-22T10:56:07.522Z,192.37
2023-02-22T10:57:01.791Z,202.71
2023-02-22T10:57:57.116Z,211.46
2023-02-22T10:58:52.623Z,216.20
2023-02-22T10:59:47.908Z,222.20
2023-02-22T11:00:44.505Z,224.02
2023-02-22T11:01:39.207Z,227.60
2023-02-22T11:02:34.554Z,232.60
2023-02-22T11:03:30.233Z,231.61
2023-02-22T11:04:25.262Z,219.97
2023-02-22T11:05:20.414Z,216.34
2023-02-22T11:06:15.522Z,214.36
2023-02-22T11:07:10.572Z,207.06
2023-02-22T11:08:06.272Z,200.24
2023-02-22T11:09:00.781Z,195.35
2023-02-22T11:09:55.722Z,185.01
2023-02-22T11:10:50.788Z,179.24
2023-02-22T11:11:46.076Z,175.47
2023-02-22T11:12:41.079Z,172.75
2023-02-22T11:13:37.422Z,168.73
2023-02-22T11:14:32.466Z,167.38
2023-02-22T11:15:27.509Z,163.76
2023-02-22T11:16:22.664Z,159.38
2023-02-22T11:17:18.548Z,159.54
2023-02-22T11:18:13.898Z,162.01
2023-02-22T11:19:09.424Z,162.17
2023-02-22T11:20:04.967Z,162.01
2023-02-22T11:21:00.446Z,160.61
2023-02-22T11:21:55.962Z,163.92
2023-02-22T11:22:51.308Z,165.71
2023-02-22T11:23:46.717Z,161.70
2023-02-22T11:24:49.008Z,157.88
2023-02-22T11:25:38.624Z,161.39
2023-02-22T11:26:32.986Z,162.01
2023-02-22T11:27:28.512Z,160.77
2023-02-22T11:28:23.986Z,164.57
2023-02-22T11:29:19.563Z,164.57
2023-02-22T11:30:14.781Z,160.46
2023-02-22T11:31:09.681Z,161.70
2023-02-22T11:32:04.626Z,158.63
2023-02-22T11:32:59.646Z,160.30
2023-02-22T11:33:54.778Z,162.80
2023-02-22T11:34:52.853Z,154.66
2023-02-22T11:35:45.680Z,154.23
2023-02-22T11:36:41.358Z,157.73
2023-02-22T11:37:36.317Z,162.65
2023-02-22T11:38:31.393Z,162.65
2023-02-22T11:39:26.380Z,166.04